createdAt,value
2022-12-10T00:01:40.217Z,8.05
2022-12-10T00:04:07.982Z,7.55
2022-12-10T00:06:37.498Z,8.40
2022-12-10T00:09:07.569Z,7.90
2022-12-10T00:11:35.654Z,8.50
2022-12-10T00:14:03.337Z,10.30
2022-12-10T00:16:32.666Z,9.07
2022-12-10T00:19:00.421Z,9.43
2022-12-10T00:21:30.910Z,8.27
2022-12-10T00:23:59.986Z,8.82
2022-12-10T00:26:30.213Z,8.30
2022-12-10T00:28:58.967Z,9.32
2022-12-10T00:31:29.828Z,8.13
2022-12-10T00:34:03.229Z,8.57
2022-12-10T00:36:36.915Z,7.78
2022-12-10T00:39:05.683Z,9.18
2022-12-10T00:41:33.532Z,9.05
2022-12-10T00:44:01.319Z,8.93
2022-12-10T00:46:30.184Z,8.50
2022-12-10T00:48:57.934Z,8.15
2022-12-10T00:51:27.713Z,8.45
2022-12-10T00:53:58.003Z,9.20
2022-12-10T00:56:28.451Z,9.60
2022-12-10T00:58:56.888Z,8.73
2022-12-10T01:01:39.894Z,9.98
2022-12-10T01:04:11.903Z,8.13
2022-12-10T01:06:45.843Z,8.00
2022-12-10T01:09:16.080Z,7.78
2022-12-10T01:11:46.068Z,9.30
2022-12-10T01:14:17.077Z,9.25
2022-12-10T01:16:45.370Z,9.35
2022-12-10T01:19:13.844Z,10.13
2022-12-10T01:21:42.012Z,9.05
2022-12-10T01:24:10.113Z,8.20
2022-12-10T01:26:38.201Z,7.72
2022-12-10T01:29:06.976Z,8.90
2022-12-10T01:31:39.510Z,9.57
2022-12-10T01:34:09.038Z,8.63
2022-12-10T01:36:39.394Z,9.25
2022-12-10T01:39:09.695Z,8.15
2022-12-10T01:41:58.224Z,8.38
2022-12-10T01:44:25.782Z,8.60
2022-12-10T01:46:56.788Z,8.52
2022-12-10T01:49:36.867Z,8.05
2022-12-10T01:52:06.706Z,8.93
2022-12-10T01:54:39.060Z,9.07
2022-12-10T01:57:10.802Z,9.27
2022-12-10T01:59:40.288Z,8.05
2022-12-10T02:02:22.249Z,8.30
2022-12-10T02:05:07.003Z,8.82
2022-12-10T02:08:17.010Z,9.10
2022-12-10T02:11:15.764Z,8.07
2022-12-10T02:13:49.241Z,8.63
2022-12-10T02:16:35.488Z,8.52
2022-12-10T02:19:09.165Z,7.78
2022-12-10T02:21:40.505Z,8.48
2022-12-10T02:24:13.753Z,8.48
2022-12-10T02:26:50.645Z,9.07
2022-12-10T02:29:25.406Z,10.30
2022-12-10T02:31:59.180Z,8.55
2022-12-10T02:34:30.541Z,8.10
2022-12-10T02:37:03.977Z,9.18
2022-12-10T02:39:38.602Z,8.85
2022-12-10T02:42:08.449Z,8.10
2022-12-10T02:44:39.086Z,8.05
2022-12-10T02:47:08.787Z,9.68
2022-12-10T02:49:38.960Z,9.00
2022-12-10T02:52:16.670Z,8.43
2022-12-10T02:54:46.567Z,10.02
2022-12-10T02:57:17.233Z,8.15
2022-12-10T03:00:02.977Z,9.73
2022-12-10T03:02:48.555Z,7.85
2022-12-10T03:05:24.354Z,9.35
2022-12-10T03:08:00.948Z,9.63
2022-12-10T03:10:50.644Z,9.65
2022-12-10T03:13:21.695Z,9.60
2022-12-10T03:15:51.847Z,9.43
2022-12-10T03:18:24.293Z,9.63
2022-12-10T03:20:55.261Z,8.88
2022-12-10T03:23:23.452Z,11.95
2022-12-10T03:25:52.382Z,8.38
2022-12-10T03:28:21.861Z,9.00
2022-12-10T03:30:51.292Z,9.32
2022-12-10T03:33:20.090Z,9.77
2022-12-10T03:35:49.453Z,8.90
2022-12-10T03:38:17.751Z,9.98
2022-12-10T03:40:45.462Z,10.15
2022-12-10T03:43:16.284Z,8.85
2022-12-10T03:45:44.082Z,10.25
2022-12-10T03:48:11.809Z,9.55
2022-12-10T03:50:39.530Z,9.30
2022-12-10T03:53:07.247Z,10.98
2022-12-10T03:55:35.059Z,10.32
2022-12-10T03:58:02.743Z,9.95
2022-12-10T04:00:30.358Z,10.50
2022-12-10T04:02:58.073Z,10.93
2022-12-10T04:05:25.724Z,10.25
2022-12-10T04:07:53.515Z,10.25
2022-12-10T04:10:21.212Z,9.60
2022-12-10T04:13:08.764Z,10.15
2022-12-10T04:15:59.227Z,9.40
2022-12-10T04:18:26.868Z,9.82
2022-12-10T04:21:13.348Z,10.20
2022-12-10T04:23:59.590Z,10.93
2022-12-10T04:26:45.985Z,11.93
2022-12-10T04:29:13.738Z,10.23
2022-12-10T04:31:41.437Z,10.93
2022-12-10T04:34:09.151Z,10.20
2022-12-10T04:36:36.811Z,10.80
2022-12-10T04:39:05.202Z,10.52
2022-12-10T04:41:32.905Z,10.60
2022-12-10T04:44:00.679Z,10.57
2022-12-10T04:46:29.704Z,10.57
2022-12-10T04:48:57.396Z,9.45
2022-12-10T04:51:25.068Z,10.05
2022-12-10T04:53:52.777Z,11.35
2022-12-10T04:56:20.626Z,10.68
2022-12-10T04:58:48.525Z,11.00
2022-12-10T05:01:16.319Z,9.85
2022-12-10T05:03:44.004Z,9.50
2022-12-10T05:06:14.884Z,10.07
2022-12-10T05:08:43.364Z,9.93
2022-12-10T05:11:16.732Z,9.85
2022-12-10T05:13:44.543Z,11.10
2022-12-10T05:16:14.562Z,9.00
2022-12-10T05:18:42.380Z,9.57
2022-12-10T05:21:14.605Z,9.82
2022-12-10T05:23:45.511Z,11.05
2022-12-10T05:26:15.043Z,11.18
2022-12-10T05:28:49.098Z,9.02
2022-12-10T05:31:19.746Z,11.00
2022-12-10T05:33:48.177Z,9.93
2022-12-10T05:36:19.299Z,10.60
2022-12-10T05:38:47.046Z,10.15
2022-12-10T05:41:26.209Z,10.48
2022-12-10T05:43:57.019Z,11.25
2022-12-10T05:46:28.129Z,11.48
2022-12-10T05:48:56.077Z,9.40
2022-12-10T05:51:27.201Z,11.38
2022-12-10T05:53:55.851Z,10.65
2022-12-10T05:56:25.035Z,10.38
2022-12-10T05:58:54.901Z,10.43
2022-12-10T06:01:28.491Z,11.30
2022-12-10T06:03:56.652Z,11.32
2022-12-10T06:06:26.028Z,11.23
2022-12-10T06:08:54.125Z,10.48
2022-12-10T06:11:21.872Z,10.52
2022-12-10T06:13:55.841Z,12.63
2022-12-10T06:16:25.017Z,11.27
2022-12-10T06:18:53.069Z,10.25
2022-12-10T06:21:21.843Z,10.18
2022-12-10T06:23:53.302Z,11.68
2022-12-10T06:26:26.924Z,11.18
2022-12-10T06:28:56.021Z,9.93
2022-12-10T06:31:24.791Z,10.48
2022-12-10T06:33:54.500Z,11.40
2022-12-10T06:36:22.449Z,10.00
2022-12-10T06:38:50.430Z,11.25
2022-12-10T06:41:20.165Z,10.43
2022-12-10T06:43:48.065Z,11.38
2022-12-10T06:46:18.339Z,11.10
2022-12-10T06:48:46.470Z,10.82
2022-12-10T06:51:15.458Z,11.88
2022-12-10T06:53:43.292Z,11.60
2022-12-10T06:56:15.627Z,9.80
2022-12-10T06:58:44.309Z,12.02
2022-12-10T07:01:28.162Z,11.88
2022-12-10T07:03:58.166Z,10.20
2022-12-10T07:06:27.598Z,9.75
2022-12-10T07:08:55.224Z,11.45
2022-12-10T07:11:24.782Z,11.00
2022-12-10T07:13:53.430Z,10.88
2022-12-10T07:16:33.695Z,10.10
2022-12-10T07:19:04.262Z,11.38
2022-12-10T07:21:37.319Z,11.43
2022-12-10T07:24:11.585Z,12.40
2022-12-10T07:26:41.473Z,12.10
2022-12-10T07:29:15.783Z,11.48
2022-12-10T07:31:44.231Z,12.77
2022-12-10T07:34:12.976Z,12.23
2022-12-10T07:36:40.951Z,12.40
2022-12-10T07:39:11.095Z,10.13
2022-12-10T07:41:39.304Z,12.23
2022-12-10T07:44:08.802Z,12.13
2022-12-10T07:46:36.553Z,11.00
2022-12-10T07:49:05.165Z,11.45
2022-12-10T07:51:33.374Z,11.85
2022-12-10T07:54:01.060Z,13.98
2022-12-10T07:56:28.742Z,12.40
2022-12-10T07:58:56.461Z,13.55
2022-12-10T08:01:27.780Z,13.98
2022-12-10T08:04:00.030Z,13.13
2022-12-10T08:06:30.766Z,11.50
2022-12-10T08:09:01.342Z,12.02
2022-12-10T08:11:29.813Z,13.18
2022-12-10T08:13:58.034Z,10.68
2022-12-10T08:16:28.843Z,11.27
2022-12-10T08:19:02.232Z,11.30
2022-12-10T08:21:32.619Z,11.57
2022-12-10T08:24:01.031Z,12.57
2022-12-10T08:26:31.676Z,11.60
2022-12-10T08:28:59.677Z,12.45
2022-12-10T08:31:33.058Z,12.30
2022-12-10T08:34:04.836Z,11.25
2022-12-10T08:36:32.851Z,11.93
2022-12-10T08:39:00.638Z,10.90
2022-12-10T08:41:28.284Z,13.27
2022-12-10T08:43:56.804Z,11.57
2022-12-10T08:46:25.264Z,10.82
2022-12-10T08:48:52.853Z,12.05
2022-12-10T08:51:21.308Z,11.93
2022-12-10T08:53:49.474Z,10.88
2022-12-10T08:56:17.144Z,12.95
2022-12-10T08:58:44.823Z,12.52
2022-12-10T09:01:15.427Z,12.55
2022-12-10T09:03:43.318Z,13.10
2022-12-10T09:06:13.644Z,12.05
2022-12-10T09:08:41.479Z,11.15
2022-12-10T09:11:12.291Z,11.10
2022-12-10T09:13:39.965Z,11.73
2022-12-10T09:16:07.962Z,12.90
2022-12-10T09:18:35.817Z,13.88
2022-12-10T09:21:08.243Z,12.88
2022-12-10T09:23:36.340Z,13.35
2022-12-10T09:26:08.392Z,14.00
2022-12-10T09:28:36.057Z,12.88
2022-12-10T09:31:10.967Z,14.50
2022-12-10T09:33:41.957Z,13.95
2022-12-10T09:36:11.593Z,13.15
2022-12-10T09:38:41.300Z,14.60
2022-12-10T09:41:50.560Z,14.20
2022-12-10T09:44:27.931Z,14.13
2022-12-10T09:46:58.390Z,14.60
2022-12-10T09:49:44.409Z,13.98
2022-12-10T09:52:18.931Z,15.63
2022-12-10T09:54:52.069Z,14.65
2022-12-10T09:57:37.552Z,13.25
2022-12-10T10:00:24.120Z,14.87
2022-12-10T10:02:53.744Z,13.27
2022-12-10T10:05:28.431Z,14.77
2022-12-10T10:07:59.887Z,16.20
2022-12-10T10:10:34.161Z,15.70
2022-12-10T10:13:40.459Z,14.85
2022-12-10T10:16:28.704Z,13.62
2022-12-10T10:19:00.482Z,13.95
2022-12-10T10:21:35.321Z,15.10
2022-12-10T10:24:09.868Z,14.32
2022-12-10T10:26:39.525Z,13.02
2022-12-10T10:29:10.344Z,12.75
2022-12-10T10:31:41.316Z,13.27
2022-12-10T10:34:23.840Z,13.70
2022-12-10T10:37:05.168Z,14.02
2022-12-10T10:39:36.883Z,12.70
2022-12-10T10:42:11.866Z,14.50
2022-12-10T10:44:40.927Z,12.98
2022-12-10T10:47:34.060Z,15.07
2022-12-10T10:50:04.538Z,12.00
2022-12-10T10:52:39.186Z,13.13
2022-12-10T10:55:07.313Z,12.77
2022-12-10T10:57:38.536Z,13.70
2022-12-10T11:00:19.183Z,13.93
2022-12-10T11:02:47.011Z,11.85
2022-12-10T11:05:35.437Z,14.30
2022-12-10T11:08:15.541Z,12.07
2022-12-10T11:10:57.403Z,13.35
2022-12-10T11:13:28.155Z,11.65
2022-12-10T11:15:59.337Z,12.07
2022-12-10T11:18:38.545Z,12.27
2022-12-10T11:21:18.406Z,13.90
2022-12-10T11:23:49.139Z,10.82
2022-12-10T11:26:27.165Z,12.85
2022-12-10T11:29:10.157Z,13.38
2022-12-10T11:31:56.097Z,12.50
2022-12-10T11:34:26.923Z,14.30
2022-12-10T11:36:57.432Z,11.60
2022-12-10T11:39:53.599Z,13.07
2022-12-10T11:42:54.196Z,11.85
2022-12-10T11:45:49.705Z,9.80
2022-12-10T11:48:17.740Z,11.95
2022-12-10T11:50:49.827Z,12.15
2022-12-10T11:53:39.200Z,12.20
2022-12-10T11:56:15.327Z,10.00
2022-12-10T11:59:17.924Z,9.20
2022-12-10T12:01:48.133Z,9.07
2022-12-10T12:04:37.505Z,8.07
2022-12-10T12:07:23.387Z,7.75
2022-12-10T12:10:09.683Z,7.00
2022-12-10T12:12:59.536Z,6.75
2022-12-10T12:15:41.868Z,7.87
2022-12-10T12:18:23.279Z,8.70
2022-12-10T12:20:51.304Z,8.73
2022-12-10T12:23:29.065Z,8.40
2022-12-10T12:26:03.721Z,9.77
2022-12-10T12:28:44.228Z,10.00
2022-12-10T12:31:17.177Z,10.00
2022-12-10T12:33:52.450Z,9.35
2022-12-10T12:36:24.367Z,8.98
2022-12-10T12:39:16.894Z,12.20
2022-12-10T12:42:05.907Z,9.65
2022-12-10T12:44:36.624Z,9.95
2022-12-10T12:47:17.931Z,9.15
2022-12-10T12:49:46.570Z,11.23
2022-12-10T12:52:40.020Z,9.25
2022-12-10T12:55:29.005Z,8.88
2022-12-10T12:58:35.419Z,10.93
2022-12-10T13:01:33.326Z,8.93
2022-12-10T13:04:01.264Z,8.02
2022-12-10T13:06:33.113Z,7.75
2022-12-10T13:09:26.497Z,6.97
2022-12-10T13:12:06.035Z,8.30
2022-12-10T13:14:55.473Z,6.87
2022-12-10T13:17:35.991Z,7.20
2022-12-10T13:20:28.275Z,7.78
2022-12-10T13:23:05.265Z,7.05
2022-12-10T13:25:48.010Z,8.23
2022-12-10T13:28:28.142Z,7.40
2022-12-10T13:31:09.575Z,8.23
2022-12-10T13:34:27.845Z,8.50
2022-12-10T13:37:05.974Z,8.45
2022-12-10T13:39:47.568Z,8.30
2022-12-10T13:42:33.780Z,7.22
2022-12-10T13:45:11.502Z,8.40
2022-12-10T13:47:39.062Z,7.97
2022-12-10T13:50:26.326Z,7.90
2022-12-10T13:53:16.583Z,8.50
2022-12-10T13:56:12.998Z,8.70
2022-12-10T13:58:51.213Z,8.95
2022-12-10T14:01:39.101Z,7.80
2022-12-10T14:04:12.315Z,6.85
2022-12-10T14:06:41.893Z,6.62
2022-12-10T14:09:22.725Z,8.18
2022-12-10T14:12:02.937Z,7.82
2022-12-10T14:14:48.005Z,6.43
2022-12-10T14:17:23.250Z,6.47
2022-12-10T14:19:55.334Z,7.97
2022-12-10T14:22:35.994Z,6.65
2022-12-10T14:25:09.566Z,6.68
2022-12-10T14:27:38.114Z,6.50
2022-12-10T14:30:17.635Z,7.82
2022-12-10T14:32:46.184Z,8.80
2022-12-10T14:35:25.145Z,6.60
2022-12-10T14:37:56.180Z,6.25
2022-12-10T14:40:26.434Z,5.93
2022-12-10T14:43:02.296Z,6.68
2022-12-10T14:45:38.447Z,6.35
2022-12-10T14:48:09.443Z,6.90
2022-12-10T14:50:37.115Z,5.62
2022-12-10T14:53:05.298Z,7.22
2022-12-10T14:55:36.162Z,6.50
2022-12-10T14:58:07.051Z,7.28
2022-12-10T15:00:35.754Z,6.00
2022-12-10T15:03:10.633Z,5.60
2022-12-10T15:05:39.029Z,5.95
2022-12-10T15:08:09.628Z,6.30
2022-12-10T15:10:41.848Z,6.97
2022-12-10T15:13:18.030Z,6.32
2022-12-10T15:15:50.038Z,5.55
2022-12-10T15:18:20.434Z,7.35
2022-12-10T15:20:54.709Z,6.72
2022-12-10T15:23:34.222Z,6.07
2022-12-10T15:26:12.842Z,6.47
2022-12-10T15:28:43.374Z,5.30
2022-12-10T15:31:14.254Z,7.35
2022-12-10T15:33:54.728Z,6.57
2022-12-10T15:36:31.249Z,7.03
2022-12-10T15:39:00.107Z,5.90
2022-12-10T15:41:58.051Z,5.75
2022-12-10T15:44:31.892Z,5.78
2022-12-10T15:47:21.296Z,5.85
2022-12-10T15:49:50.828Z,4.68
2022-12-10T15:52:21.076Z,5.30
2022-12-10T15:54:51.687Z,5.12
2022-12-10T15:57:20.681Z,5.03
2022-12-10T15:59:50.793Z,5.45
2022-12-10T16:02:36.993Z,6.40
2022-12-10T16:05:12.135Z,5.18
2022-12-10T16:07:39.913Z,5.15
2022-12-10T16:10:08.901Z,6.22
2022-12-10T16:12:40.718Z,4.97
2022-12-10T16:15:13.069Z,5.30
2022-12-10T16:17:40.683Z,5.53
2022-12-10T16:20:23.816Z,6.50
2022-12-10T16:22:51.908Z,5.18
2022-12-10T16:25:19.859Z,5.75
2022-12-10T16:27:47.588Z,6.10
2022-12-10T16:30:47.098Z,6.53
2022-12-10T16:33:20.002Z,6.95
2022-12-10T16:35:48.852Z,6.72
2022-12-10T16:38:16.984Z,6.78
2022-12-10T16:40:46.145Z,5.55
2022-12-10T16:43:19.432Z,7.28
2022-12-10T16:45:47.569Z,6.03
2022-12-10T16:48:15.642Z,6.53
2022-12-10T16:50:44.516Z,5.90
2022-12-10T16:53:25.681Z,6.07
2022-12-10T16:55:53.810Z,6.75
2022-12-10T16:58:23.053Z,6.22
2022-12-10T17:00:54.632Z,6.18
2022-12-10T17:03:26.239Z,6.53
2022-12-10T17:05:59.382Z,6.35
2022-12-10T17:08:28.994Z,6.22
2022-12-10T17:11:17.045Z,7.75
2022-12-10T17:13:46.874Z,6.65
2022-12-10T17:16:22.250Z,6.45
2022-12-10T17:18:50.481Z,6.07
2022-12-10T17:21:18.343Z,6.40
2022-12-10T17:23:46.324Z,7.60
2022-12-10T17:26:25.960Z,8.57
2022-12-10T17:28:54.194Z,7.80
2022-12-10T17:31:22.135Z,7.82
2022-12-10T17:33:52.051Z,8.00
2022-12-10T17:36:20.183Z,6.85
2022-12-10T17:38:47.912Z,8.68
2022-12-10T17:41:17.750Z,7.40
2022-12-10T17:43:45.776Z,7.93
2022-12-10T17:46:14.719Z,8.10
2022-12-10T17:48:42.888Z,8.52
2022-12-10T17:51:14.338Z,9.55
2022-12-10T17:53:43.128Z,7.72
2022-12-10T17:56:19.645Z,9.20
2022-12-10T17:58:48.770Z,8.73
2022-12-10T18:01:17.036Z,7.95
2022-12-10T18:03:45.095Z,7.30
2022-12-10T18:06:27.220Z,7.00
2022-12-10T18:09:00.863Z,7.22
2022-12-10T18:11:33.159Z,8.38
2022-12-10T18:14:01.137Z,8.48
2022-12-10T18:16:33.252Z,8.20
2022-12-10T18:19:03.401Z,7.00
2022-12-10T18:21:31.291Z,6.72
2022-12-10T18:23:58.976Z,9.20
2022-12-10T18:26:27.365Z,9.07
2022-12-10T18:28:56.637Z,8.20
2022-12-10T18:31:34.491Z,6.72
2022-12-10T18:34:08.593Z,6.68
2022-12-10T18:36:39.474Z,7.57
2022-12-10T18:39:14.560Z,7.28
2022-12-10T18:41:42.173Z,5.95
2022-12-10T18:44:09.832Z,6.62
2022-12-10T18:46:40.253Z,5.55
2022-12-10T18:49:08.390Z,7.05
2022-12-10T18:51:36.099Z,6.40
2022-12-10T18:54:03.916Z,6.22
2022-12-10T18:56:33.736Z,6.32
2022-12-10T18:59:02.172Z,7.75
2022-12-10T19:01:30.752Z,6.30
2022-12-10T19:03:59.456Z,7.85
2022-12-10T19:06:29.307Z,7.28
2022-12-10T19:11:52.830Z,6.55
2022-12-10T19:14:21.891Z,8.90
2022-12-10T19:16:49.605Z,7.00
2022-12-10T19:19:19.142Z,6.65
2022-12-10T19:21:47.888Z,7.87
2022-12-10T19:24:15.645Z,7.45
2022-12-10T19:26:44.579Z,7.03
2022-12-10T19:29:15.939Z,7.65
2022-12-10T19:31:44.354Z,10.70
2022-12-10T19:34:13.448Z,8.68
2022-12-10T19:36:42.770Z,9.18
2022-12-10T19:39:36.932Z,9.55
2022-12-10T19:42:04.742Z,9.90
2022-12-10T19:44:33.253Z,9.00
2022-12-10T19:47:01.111Z,7.68
2022-12-10T19:49:28.914Z,8.85
2022-12-10T19:51:56.579Z,6.97
2022-12-10T19:54:24.167Z,7.03
2022-12-10T19:56:51.812Z,7.10
2022-12-10T19:59:21.057Z,7.45
2022-12-10T20:01:49.494Z,7.07
2022-12-10T20:04:19.012Z,7.78
2022-12-10T20:06:50.029Z,7.70
2022-12-10T20:09:28.390Z,10.98
2022-12-10T20:11:56.787Z,8.00
2022-12-10T20:14:25.234Z,9.82
2022-12-10T20:16:53.553Z,7.97
2022-12-10T20:19:23.843Z,9.23
2022-12-10T20:21:52.982Z,8.55
2022-12-10T20:24:21.308Z,10.30
2022-12-10T20:26:50.724Z,9.15
2022-12-10T20:29:24.085Z,9.73
2022-12-10T20:31:53.848Z,8.23
2022-12-10T20:34:22.675Z,9.07
2022-12-10T20:36:50.971Z,9.70
2022-12-10T20:39:27.401Z,10.45
2022-12-10T20:41:56.083Z,11.15
2022-12-10T20:44:25.008Z,9.52
2022-12-10T20:46:54.234Z,9.45
2022-12-10T20:49:23.954Z,8.60
2022-12-10T20:51:52.325Z,9.35
2022-12-10T20:54:20.614Z,9.38
2022-12-10T20:56:48.333Z,10.65
2022-12-10T20:59:18.187Z,11.12
2022-12-10T21:01:45.976Z,11.50
2022-12-10T21:04:13.721Z,10.07
2022-12-10T21:06:44.381Z,11.25
2022-12-10T21:09:13.550Z,10.43
2022-12-10T21:11:41.275Z,9.52
2022-12-10T21:14:18.456Z,11.02
2022-12-10T21:16:56.679Z,10.45
2022-12-10T21:19:24.395Z,9.23
2022-12-10T21:21:52.259Z,9.57
2022-12-10T21:24:20.047Z,9.45
2022-12-10T21:26:47.735Z,8.25
2022-12-10T21:29:15.725Z,8.95
2022-12-10T21:31:43.557Z,8.77
2022-12-10T21:34:11.336Z,8.77
2022-12-10T21:36:39.546Z,8.82
2022-12-10T21:39:07.363Z,7.53
2022-12-10T21:41:53.686Z,9.15
2022-12-10T21:44:21.454Z,9.93
2022-12-10T21:46:49.264Z,10.25
2022-12-10T21:49:17.092Z,9.65
2022-12-10T21:51:44.772Z,11.43
2022-12-10T21:54:12.435Z,10.98
2022-12-10T21:56:41.278Z,10.43
2022-12-10T21:59:09.265Z,10.43
2022-12-10T22:01:37.448Z,7.85
2022-12-10T22:04:05.294Z,9.18
2022-12-10T22:06:33.035Z,10.73
2022-12-10T22:09:00.688Z,8.63
2022-12-10T22:11:28.524Z,9.68
2022-12-10T22:13:56.840Z,8.15
2022-12-10T22:16:25.062Z,8.98
2022-12-10T22:18:52.720Z,9.32
2022-12-10T22:21:24.431Z,8.93
2022-12-10T22:23:53.238Z,8.57
2022-12-10T22:26:22.055Z,10.27
2022-12-10T22:28:50.171Z,8.80
2022-12-10T22:31:18.407Z,10.73
2022-12-10T22:33:46.294Z,12.57
2022-12-10T22:36:14.737Z,10.70
2022-12-10T22:38:42.424Z,10.90
2022-12-10T22:41:10.579Z,12.00
2022-12-10T22:43:50.223Z,11.93
2022-12-10T22:46:18.765Z,11.07
2022-12-10T22:48:46.710Z,12.60
2022-12-10T22:51:14.410Z,10.35
2022-12-10T22:53:42.125Z,10.35
2022-12-10T22:56:12.479Z,14.93
2022-12-10T22:58:40.377Z,10.50
2022-12-10T23:01:08.364Z,10.23
2022-12-10T23:03:36.020Z,10.70
2022-12-10T23:06:03.786Z,13.77
2022-12-10T23:08:32.351Z,10.82
2022-12-10T23:11:00.120Z,12.90
2022-12-10T23:13:31.095Z,14.30
2022-12-10T23:16:01.273Z,10.43
2022-12-10T23:18:28.993Z,10.48
2022-12-10T23:20:56.748Z,10.73
2022-12-10T23:23:24.370Z,11.52
2022-12-10T23:25:52.584Z,11.88
2022-12-10T23:28:20.885Z,14.38
2022-12-10T23:30:57.148Z,12.35
2022-12-10T23:33:25.033Z,16.05
2022-12-10T23:35:52.622Z,14.32
2022-12-10T23:38:20.340Z,12.18
2022-12-10T23:40:47.987Z,14.65
2022-12-10T23:43:15.661Z,14.87
2022-12-10T23:45:44.905Z,15.55
2022-12-10T23:48:12.789Z,14.55
2022-12-10T23:50:40.507Z,12.35
2022-12-10T23:53:08.561Z,14.93
2022-12-10T23:55:36.231Z,13.38
2022-12-10T23:58:04.065Z,11.63
